sensor_id;sensor_type;location;lat;lon;timestamp;P1;durP1;ratioP1;P2;durP2;ratioP2
61527;SDS011;47395;42.032;-8.634;2022-09-20T00:00:19;15.77;;;11.18;;
61527;SDS011;47395;42.032;-8.634;2022-09-20T00:02:20;15.95;;;11.32;;
61527;SDS011;47395;42.032;-8.634;2022-09-20T00:04:21;15.45;;;11.13;;
61527;SDS011;47395;42.032;-8.634;2022-09-20T00:06:24;15.98;;;11.23;;
61527;SDS011;47395;42.032;-8.634;2022-09-20T00:08:28;13.70;;;11.13;;
61527;SDS011;47395;42.032;-8.634;2022-09-20T00:10:30;20.85;;;11.15;;
61527;SDS011;47395;42.032;-8.634;2022-09-20T00:12:35;14.55;;;11.23;;
61527;SDS011;47395;42.032;-8.634;2022-09-20T00:14:36;17.45;;;12.05;;
61527;SDS011;47395;42.032;-8.634;2022-09-20T00:16:38;17.02;;;11.13;;
61527;SDS011;47395;42.032;-8.634;2022-09-20T00:18:40;13.90;;;10.60;;
61527;SDS011;47395;42.032;-8.634;2022-09-20T00:20:47;14.82;;;11.05;;
61527;SDS011;47395;42.032;-8.634;2022-09-20T00:22:49;14.00;;;11.00;;
61527;SDS011;47395;42.032;-8.634;2022-09-20T00:24:50;12.48;;;10.63;;
61527;SDS011;47395;42.032;-8.634;2022-09-20T00:26:51;15.65;;;11.25;;
61527;SDS011;47395;42.032;-8.634;2022-09-20T00:28:52;15.15;;;11.02;;
61527;SDS011;47395;42.032;-8.634;2022-09-20T00:30:53;17.75;;;11.93;;
61527;SDS011;47395;42.032;-8.634;2022-09-20T00:32:55;15.70;;;12.43;;
61527;SDS011;47395;42.032;-8.634;2022-09-20T00:34:56;20.17;;;12.13;;
61527;SDS011;47395;42.032;-8.634;2022-09-20T00:37:12;22.10;;;12.60;;
61527;SDS011;47395;42.032;-8.634;2022-09-20T00:39:13;18.13;;;12.45;;
61527;SDS011;47395;42.032;-8.634;2022-09-20T00:41:15;18.30;;;11.88;;
61527;SDS011;47395;42.032;-8.634;2022-09-20T00:43:16;16.45;;;12.30;;
61527;SDS011;47395;42.032;-8.634;2022-09-20T00:45:24;14.60;;;12.75;;
61527;SDS011;47395;42.032;-8.634;2022-09-20T00:47:28;22.40;;;12.25;;
61527;SDS011;47395;42.032;-8.634;2022-09-20T00:49:30;15.35;;;12.80;;
61527;SDS011;47395;42.032;-8.634;2022-09-20T00:51:33;19.48;;;12.88;;
61527;SDS011;47395;42.032;-8.634;2022-09-20T00:53:38;17.42;;;13.70;;
61527;SDS011;47395;42.032;-8.634;2022-09-20T00:55:44;17.25;;;12.63;;
61527;SDS011;47395;42.032;-8.634;2022-09-20T00:57:50;16.30;;;12.98;;
61527;SDS011;47395;42.032;-8.634;2022-09-20T00:59:53;19.02;;;12.65;;
61527;SDS011;47395;42.032;-8.634;2022-09-20T01:02:05;14.60;;;12.90;;
61527;SDS011;47395;42.032;-8.634;2022-09-20T01:04:11;19.10;;;12.82;;
61527;SDS011;47395;42.032;-8.634;2022-09-20T01:06:14;17.05;;;12.63;;
61527;SDS011;47395;42.032;-8.634;2022-09-20T01:08:16;16.17;;;12.05;;
61527;SDS011;47395;42.032;-8.634;2022-09-20T01:10:17;20.15;;;12.23;;
61527;SDS011;47395;42.032;-8.634;2022-09-20T01:12:19;21.55;;;12.93;;
61527;SDS011;47395;42.032;-8.634;2022-09-20T01:14:22;17.27;;;11.93;;
61527;SDS011;47395;42.032;-8.634;2022-09-20T01:16:25;19.08;;;11.88;;
61527;SDS011;47395;42.032;-8.634;2022-09-20T01:18:28;19.80;;;12.30;;
61527;SDS011;47395;42.032;-8.634;2022-09-20T01:20:32;16.75;;;13.15;;
61527;SDS011;47395;42.032;-8.634;2022-09-20T01:24:31;13.77;;;12.20;;
61527;SDS011;47395;42.032;-8.634;2022-09-20T01:25:16;21.25;;;12.77;;
61527;SDS011;47395;42.032;-8.634;2022-09-20T01:27:41;17.33;;;12.38;;
61527;SDS011;47395;42.032;-8.634;2022-09-20T01:29:48;16.38;;;12.23;;
61527;SDS011;47395;42.032;-8.634;2022-09-20T01:32:02;16.48;;;13.07;;
61527;SDS011;47395;42.032;-8.634;2022-09-20T01:34:11;18.02;;;12.65;;
61527;SDS011;47395;42.032;-8.634;2022-09-20T01:36:17;16.48;;;12.85;;
61527;SDS011;47395;42.032;-8.634;2022-09-20T01:38:29;19.58;;;12.73;;
61527;SDS011;47395;42.032;-8.634;2022-09-20T01:40:43;16.33;;;13.00;;
61527;SDS011;47395;42.032;-8.634;2022-09-20T01:45:37;19.15;;;14.10;;
61527;SDS011;47395;42.032;-8.634;2022-09-20T02:04:22;18.15;;;13.57;;
61527;SDS011;47395;42.032;-8.634;2022-09-20T02:07:20;20.17;;;13.68;;
61527;SDS011;47395;42.032;-8.634;2022-09-20T02:12:20;19.38;;;13.18;;
61527;SDS011;47395;42.032;-8.634;2022-09-20T02:14:44;18.58;;;13.07;;
61527;SDS011;47395;42.032;-8.634;2022-09-20T02:17:10;20.95;;;13.48;;
61527;SDS011;47395;42.032;-8.634;2022-09-20T02:24:22;22.15;;;12.45;;
61527;SDS011;47395;42.032;-8.634;2022-09-20T02:31:33;19.00;;;12.13;;
61527;SDS011;47395;42.032;-8.634;2022-09-20T02:42:03;20.17;;;13.10;;
61527;SDS011;47395;42.032;-8.634;2022-09-20T02:44:31;15.40;;;13.77;;
61527;SDS011;47395;42.032;-8.634;2022-09-20T02:46:59;17.77;;;13.68;;
61527;SDS011;47395;42.032;-8.634;2022-09-20T02:54:05;20.23;;;15.15;;
61527;SDS011;47395;42.032;-8.634;2022-09-20T02:56:30;19.10;;;14.95;;
61527;SDS011;47395;42.032;-8.634;2022-09-20T03:01:05;18.17;;;14.68;;
61527;SDS011;47395;42.032;-8.634;2022-09-20T03:03:27;17.88;;;14.73;;
61527;SDS011;47395;42.032;-8.634;2022-09-20T03:08:28;17.67;;;14.27;;
61527;SDS011;47395;42.032;-8.634;2022-09-20T03:10:37;16.67;;;14.75;;
61527;SDS011;47395;42.032;-8.634;2022-09-20T03:15:38;16.73;;;15.05;;
61527;SDS011;47395;42.032;-8.634;2022-09-20T03:18:10;16.20;;;13.15;;
61527;SDS011;47395;42.032;-8.634;2022-09-20T03:20:37;17.58;;;13.55;;
61527;SDS011;47395;42.032;-8.634;2022-09-20T03:28:14;24.20;;;14.40;;
61527;SDS011;47395;42.032;-8.634;2022-09-20T03:33:22;18.65;;;14.40;;
61527;SDS011;47395;42.032;-8.634;2022-09-20T03:41:45;18.10;;;14.50;;
61527;SDS011;47395;42.032;-8.634;2022-09-20T03:44:17;18.52;;;14.18;;
61527;SDS011;47395;42.032;-8.634;2022-09-20T03:50:25;18.58;;;14.48;;
61527;SDS011;47395;42.032;-8.634;2022-09-20T03:57:25;20.60;;;14.90;;
61527;SDS011;47395;42.032;-8.634;2022-09-20T03:59:50;17.85;;;14.00;;
61527;SDS011;47395;42.032;-8.634;2022-09-20T04:06:55;14.93;;;13.43;;
61527;SDS011;47395;42.032;-8.634;2022-09-20T04:14:32;16.13;;;13.55;;
61527;SDS011;47395;42.032;-8.634;2022-09-20T04:19:28;20.83;;;14.82;;
61527;SDS011;47395;42.032;-8.634;2022-09-20T04:21:42;18.23;;;14.80;;
61527;SDS011;47395;42.032;-8.634;2022-09-20T04:23:58;24.88;;;15.25;;
61527;SDS011;47395;42.032;-8.634;2022-09-20T04:26:25;19.95;;;15.32;;
61527;SDS011;47395;42.032;-8.634;2022-09-20T04:28:31;21.88;;;15.38;;
61527;SDS011;47395;42.032;-8.634;2022-09-20T04:30:39;22.52;;;14.93;;
61527;SDS011;47395;42.032;-8.634;2022-09-20T04:33:05;27.35;;;15.10;;
61527;SDS011;47395;42.032;-8.634;2022-09-20T04:35:34;18.23;;;14.85;;
61527;SDS011;47395;42.032;-8.634;2022-09-20T04:38:02;21.75;;;15.32;;
61527;SDS011;47395;42.032;-8.634;2022-09-20T04:40:12;20.17;;;14.63;;
61527;SDS011;47395;42.032;-8.634;2022-09-20T04:42:30;16.73;;;14.98;;
61527;SDS011;47395;42.032;-8.634;2022-09-20T04:45:02;17.05;;;14.60;;
61527;SDS011;47395;42.032;-8.634;2022-09-20T04:47:20;16.92;;;15.18;;
61527;SDS011;47395;42.032;-8.634;2022-09-20T04:50:07;17.25;;;13.65;;
61527;SDS011;47395;42.032;-8.634;2022-09-20T04:52:53;19.48;;;15.18;;
61527;SDS011;47395;42.032;-8.634;2022-09-20T05:00:04;26.23;;;15.25;;
61527;SDS011;47395;42.032;-8.634;2022-09-20T05:19:07;21.95;;;14.98;;
61527;SDS011;47395;42.032;-8.634;2022-09-20T05:24:03;20.55;;;14.70;;
61527;SDS011;47395;42.032;-8.634;2022-09-20T05:26:41;20.52;;;15.05;;
61527;SDS011;47395;42.032;-8.634;2022-09-20T05:29:12;15.75;;;14.15;;
61527;SDS011;47395;42.032;-8.634;2022-09-20T05:31:34;20.08;;;14.52;;
61527;SDS011;47395;42.032;-8.634;2022-09-20T05:33:56;23.88;;;13.60;;
61527;SDS011;47395;42.032;-8.634;2022-09-20T05:36:30;18.27;;;14.70;;
61527;SDS011;47395;42.032;-8.634;2022-09-20T05:41:27;20.77;;;14.30;;
61527;SDS011;47395;42.032;-8.634;2022-09-20T05:43:46;21.02;;;14.45;;
61527;SDS011;47395;42.032;-8.634;2022-09-20T05:50:58;19.63;;;13.68;;
61527;SDS011;47395;42.032;-8.634;2022-09-20T06:00:19;19.40;;;14.38;;
61527;SDS011;47395;42.032;-8.634;2022-09-20T06:02:30;15.10;;;13.30;;
61527;SDS011;47395;42.032;-8.634;2022-09-20T06:04:45;19.67;;;15.65;;
61527;SDS011;47395;42.032;-8.634;2022-09-20T06:07:06;16.48;;;13.15;;
61527;SDS011;47395;42.032;-8.634;2022-09-20T06:12:03;19.30;;;13.82;;
61527;SDS011;47395;42.032;-8.634;2022-09-20T06:14:35;16.85;;;13.93;;
61527;SDS011;47395;42.032;-8.634;2022-09-20T06:21:53;14.77;;;13.23;;
61527;SDS011;47395;42.032;-8.634;2022-09-20T06:23:56;18.58;;;13.65;;
61527;SDS011;47395;42.032;-8.634;2022-09-20T06:26:03;21.98;;;13.68;;
61527;SDS011;47395;42.032;-8.634;2022-09-20T06:28:13;15.77;;;14.05;;
61527;SDS011;47395;42.032;-8.634;2022-09-20T06:30:21;15.93;;;13.73;;
61527;SDS011;47395;42.032;-8.634;2022-09-20T06:32:27;15.23;;;13.35;;
61527;SDS011;47395;42.032;-8.634;2022-09-20T06:34:28;16.55;;;13.40;;
61527;SDS011;47395;42.032;-8.634;2022-09-20T06:36:33;15.35;;;13.48;;
61527;SDS011;47395;42.032;-8.634;2022-09-20T06:39:18;21.50;;;13.18;;
61527;SDS011;47395;42.032;-8.634;2022-09-20T06:41:56;18.05;;;12.63;;
61527;SDS011;47395;42.032;-8.634;2022-09-20T06:43:59;24.02;;;13.20;;
61527;SDS011;47395;42.032;-8.634;2022-09-20T06:46:01;15.20;;;12.48;;
61527;SDS011;47395;42.032;-8.634;2022-09-20T06:48:02;18.58;;;12.38;;
61527;SDS011;47395;42.032;-8.634;2022-09-20T06:50:03;15.65;;;12.35;;
61527;SDS011;47395;42.032;-8.634;2022-09-20T06:52:05;17.92;;;12.20;;
61527;SDS011;47395;42.032;-8.634;2022-09-20T06:54:17;13.60;;;12.30;;
61527;SDS011;47395;42.032;-8.634;2022-09-20T06:56:21;14.43;;;12.32;;
61527;SDS011;47395;42.032;-8.634;2022-09-20T06:58:25;15.55;;;12.30;;
61527;SDS011;47395;42.032;-8.634;2022-09-20T07:00:27;14.10;;;11.35;;
61527;SDS011;47395;42.032;-8.634;2022-09-20T07:02:28;18.25;;;12.10;;
61527;SDS011;47395;42.032;-8.634;2022-09-20T07:04:29;17.02;;;11.88;;
61527;SDS011;47395;42.032;-8.634;2022-09-20T07:06:30;16.15;;;11.32;;
61527;SDS011;47395;42.032;-8.634;2022-09-20T07:08:32;13.90;;;11.48;;
61527;SDS011;47395;42.032;-8.634;2022-09-20T07:10:33;19.38;;;11.23;;
61527;SDS011;47395;42.032;-8.634;2022-09-20T07:12:34;14.57;;;10.45;;
61527;SDS011;47395;42.032;-8.634;2022-09-20T07:14:35;12.88;;;9.65;;
61527;SDS011;47395;42.032;-8.634;2022-09-20T07:16:36;11.50;;;9.10;;
61527;SDS011;47395;42.032;-8.634;2022-09-20T07:18:37;12.55;;;8.88;;
61527;SDS011;47395;42.032;-8.634;2022-09-20T07:20:39;12.23;;;8.95;;
61527;SDS011;47395;42.032;-8.634;2022-09-20T07:22:40;11.50;;;8.40;;
61527;SDS011;47395;42.032;-8.634;2022-09-20T07:24:41;13.48;;;8.38;;
61527;SDS011;47395;42.032;-8.634;2022-09-20T07:26:53;11.82;;;8.32;;
61527;SDS011;47395;42.032;-8.634;2022-09-20T07:29:00;12.10;;;8.10;;
61527;SDS011;47395;42.032;-8.634;2022-09-20T07:31:01;14.15;;;7.68;;
61527;SDS011;47395;42.032;-8.634;2022-09-20T07:33:02;14.98;;;7.15;;
61527;SDS011;47395;42.032;-8.634;2022-09-20T07:35:03;7.25;;;6.55;;
61527;SDS011;47395;42.032;-8.634;2022-09-20T07:37:04;11.85;;;6.75;;
61527;SDS011;47395;42.032;-8.634;2022-09-20T07:39:05;6.80;;;6.07;;
61527;SDS011;47395;42.032;-8.634;2022-09-20T07:41:05;9.80;;;6.00;;
61527;SDS011;47395;42.032;-8.634;2022-09-20T07:43:07;11.32;;;6.57;;
61527;SDS011;47395;42.032;-8.634;2022-09-20T07:45:08;10.90;;;6.47;;
61527;SDS011;47395;42.032;-8.634;2022-09-20T07:47:12;10.05;;;6.15;;
61527;SDS011;47395;42.032;-8.634;2022-09-20T07:49:14;9.40;;;6.22;;
61527;SDS011;47395;42.032;-8.634;2022-09-20T07:51:14;15.68;;;5.85;;
61527;SDS011;47395;42.032;-8.634;2022-09-20T07:53:15;9.10;;;6.07;;
61527;SDS011;47395;42.032;-8.634;2022-09-20T07:55:16;21.55;;;6.43;;
61527;SDS011;47395;42.032;-8.634;2022-09-20T07:57:17;8.60;;;5.95;;
61527;SDS011;47395;42.032;-8.634;2022-09-20T07:59:18;9.15;;;6.25;;
61527;SDS011;47395;42.032;-8.634;2022-09-20T08:01:19;8.13;;;5.97;;
61527;SDS011;47395;42.032;-8.634;2022-09-20T08:03:22;5.97;;;5.35;;
61527;SDS011;47395;42.032;-8.634;2022-09-20T08:05:23;10.52;;;5.95;;
61527;SDS011;47395;42.032;-8.634;2022-09-20T08:07:24;7.28;;;5.15;;
61527;SDS011;47395;42.032;-8.634;2022-09-20T08:09:25;10.23;;;5.50;;
61527;SDS011;47395;42.032;-8.634;2022-09-20T08:11:28;9.95;;;5.50;;
61527;SDS011;47395;42.032;-8.634;2022-09-20T08:13:30;7.03;;;5.50;;
61527;SDS011;47395;42.032;-8.634;2022-09-20T08:15:31;7.88;;;5.60;;
61527;SDS011;47395;42.032;-8.634;2022-09-20T08:17:34;10.63;;;6.50;;
61527;SDS011;47395;42.032;-8.634;2022-09-20T08:19:35;7.50;;;5.38;;
61527;SDS011;47395;42.032;-8.634;2022-09-20T08:21:39;7.63;;;5.53;;
61527;SDS011;47395;42.032;-8.634;2022-09-20T08:23:44;12.48;;;6.20;;
61527;SDS011;47395;42.032;-8.634;2022-09-20T08:25:49;7.90;;;6.85;;
61527;SDS011;47395;42.032;-8.634;2022-09-20T08:27:53;7.55;;;6.68;;
61527;SDS011;47395;42.032;-8.634;2022-09-20T08:29:53;10.30;;;6.68;;
61527;SDS011;47395;42.032;-8.634;2022-09-20T08:31:56;12.68;;;7.30;;
61527;SDS011;47395;42.032;-8.634;2022-09-20T08:33:59;7.78;;;6.97;;
61527;SDS011;47395;42.032;-8.634;2022-09-20T08:36:04;8.88;;;6.82;;
61527;SDS011;47395;42.032;-8.634;2022-09-20T08:38:06;6.95;;;6.35;;
61527;SDS011;47395;42.032;-8.634;2022-09-20T08:40:08;6.70;;;6.10;;
61527;SDS011;47395;42.032;-8.634;2022-09-20T08:42:13;6.93;;;5.82;;
61527;SDS011;47395;42.032;-8.634;2022-09-20T08:44:27;8.07;;;6.63;;
61527;SDS011;47395;42.032;-8.634;2022-09-20T08:46:41;8.23;;;6.18;;
61527;SDS011;47395;42.032;-8.634;2022-09-20T08:48:46;8.25;;;6.25;;
61527;SDS011;47395;42.032;-8.634;2022-09-20T08:50:46;6.97;;;6.28;;
61527;SDS011;47395;42.032;-8.634;2022-09-20T08:52:49;9.90;;;6.20;;
61527;SDS011;47395;42.032;-8.634;2022-09-20T08:54:54;6.82;;;5.95;;
61527;SDS011;47395;42.032;-8.634;2022-09-20T08:57:02;9.10;;;5.28;;
61527;SDS011;47395;42.032;-8.634;2022-09-20T08:59:13;8.15;;;5.40;;
61527;SDS011;47395;42.032;-8.634;2022-09-20T09:01:22;6.00;;;5.50;;
61527;SDS011;47395;42.032;-8.634;2022-09-20T09:03:25;10.35;;;5.53;;
61527;SDS011;47395;42.032;-8.634;2022-09-20T09:05:31;5.95;;;4.85;;
61527;SDS011;47395;42.032;-8.634;2022-09-20T09:07:34;7.43;;;4.95;;
61527;SDS011;47395;42.032;-8.634;2022-09-20T09:09:35;5.22;;;4.65;;
61527;SDS011;47395;42.032;-8.634;2022-09-20T09:11:40;8.45;;;4.75;;
61527;SDS011;47395;42.032;-8.634;2022-09-20T09:13:43;5.40;;;4.45;;
61527;SDS011;47395;42.032;-8.634;2022-09-20T09:16:04;6.50;;;4.35;;
61527;SDS011;47395;42.032;-8.634;2022-09-20T09:18:09;8.05;;;4.25;;
61527;SDS011;47395;42.032;-8.634;2022-09-20T09:20:15;16.27;;;4.15;;
61527;SDS011;47395;42.032;-8.634;2022-09-20T09:25:07;4.75;;;4.35;;
61527;SDS011;47395;42.032;-8.634;2022-09-20T09:27:18;6.32;;;3.92;;
61527;SDS011;47395;42.032;-8.634;2022-09-20T09:29:20;4.15;;;3.28;;
61527;SDS011;47395;42.032;-8.634;2022-09-20T09:31:23;7.30;;;3.53;;
61527;SDS011;47395;42.032;-8.634;2022-09-20T09:33:28;7.47;;;3.83;;
61527;SDS011;47395;42.032;-8.634;2022-09-20T09:35:30;6.93;;;3.42;;
61527;SDS011;47395;42.032;-8.634;2022-09-20T09:37:34;4.93;;;3.45;;
61527;SDS011;47395;42.032;-8.634;2022-09-20T09:39:34;6.28;;;3.30;;
61527;SDS011;47395;42.032;-8.634;2022-09-20T09:41:37;4.40;;;3.28;;
61527;SDS011;47395;42.032;-8.634;2022-09-20T09:43:38;4.75;;;3.60;;
61527;SDS011;47395;42.032;-8.634;2022-09-20T09:45:39;5.57;;;3.40;;
61527;SDS011;47395;42.032;-8.634;2022-09-20T09:47:40;5.65;;;3.28;;
61527;SDS011;47395;42.032;-8.634;2022-09-20T09:49:54;4.53;;;3.47;;
61527;SDS011;47395;42.032;-8.634;2022-09-20T09:52:00;4.40;;;3.50;;
61527;SDS011;47395;42.032;-8.634;2022-09-20T09:54:03;9.93;;;3.78;;
61527;SDS011;47395;42.032;-8.634;2022-09-20T09:56:16;4.55;;;3.33;;
61527;SDS011;47395;42.032;-8.634;2022-09-20T10:01:01;5.93;;;3.65;;
61527;SDS011;47395;42.032;-8.634;2022-09-20T10:03:25;5.68;;;3.42;;
61527;SDS011;47395;42.032;-8.634;2022-09-20T10:05:56;5.47;;;3.40;;
61527;SDS011;47395;42.032;-8.634;2022-09-20T10:08:22;4.80;;;3.55;;
61527;SDS011;47395;42.032;-8.634;2022-09-20T10:12:49;3.80;;;3.50;;
61527;SDS011;47395;42.032;-8.634;2022-09-20T10:18:24;5.07;;;3.55;;
61527;SDS011;47395;42.032;-8.634;2022-09-20T10:20:37;6.22;;;3.60;;
61527;SDS011;47395;42.032;-8.634;2022-09-20T10:25:49;3.67;;;3.28;;
61527;SDS011;47395;42.032;-8.634;2022-09-20T10:28:21;4.03;;;3.67;;
61527;SDS011;47395;42.032;-8.634;2022-09-20T10:30:20;5.00;;;3.60;;
61527;SDS011;47395;42.032;-8.634;2022-09-20T10:32:38;6.50;;;3.60;;
61527;SDS011;47395;42.032;-8.634;2022-09-20T10:40:34;5.28;;;3.40;;
61527;SDS011;47395;42.032;-8.634;2022-09-20T10:43:02;5.50;;;2.92;;
61527;SDS011;47395;42.032;-8.634;2022-09-20T10:45:18;5.97;;;3.47;;
61527;SDS011;47395;42.032;-8.634;2022-09-20T10:47:37;7.78;;;3.83;;
61527;SDS011;47395;42.032;-8.634;2022-09-20T10:50:01;5.63;;;3.78;;
61527;SDS011;47395;42.032;-8.634;2022-09-20T10:54:55;5.03;;;3.35;;
61527;SDS011;47395;42.032;-8.634;2022-09-20T10:59:50;3.72;;;3.50;;
61527;SDS011;47395;42.032;-8.634;2022-09-20T11:02:31;6.75;;;3.38;;
61527;SDS011;47395;42.032;-8.634;2022-09-20T11:05:28;6.32;;;3.40;;
61527;SDS011;47395;42.032;-8.634;2022-09-20T11:10:13;6.70;;;3.08;;
61527;SDS011;47395;42.032;-8.634;2022-09-20T11:12:23;5.60;;;3.20;;
61527;SDS011;47395;42.032;-8.634;2022-09-20T11:14:31;8.77;;;3.63;;
61527;SDS011;47395;42.032;-8.634;2022-09-20T11:16:41;4.13;;;3.20;;
61527;SDS011;47395;42.032;-8.634;2022-09-20T11:21:19;4.53;;;3.38;;
61527;SDS011;47395;42.032;-8.634;2022-09-20T11:23:38;5.07;;;3.63;;
61527;SDS011;47395;42.032;-8.634;2022-09-20T11:25:46;5.65;;;3.20;;
61527;SDS011;47395;42.032;-8.634;2022-09-20T11:27:54;5.43;;;3.38;;
61527;SDS011;47395;42.032;-8.634;2022-09-20T11:30:02;5.22;;;3.47;;
61527;SDS011;47395;42.032;-8.634;2022-09-20T11:32:23;5.95;;;3.20;;
61527;SDS011;47395;42.032;-8.634;2022-09-20T11:34:30;4.45;;;3.30;;
61527;SDS011;47395;42.032;-8.634;2022-09-20T11:36:52;3.97;;;3.53;;
61527;SDS011;47395;42.032;-8.634;2022-09-20T11:38:59;5.75;;;3.20;;
61527;SDS011;47395;42.032;-8.634;2022-09-20T11:43:37;5.88;;;3.05;;
61527;SDS011;47395;42.032;-8.634;2022-09-20T11:45:42;3.38;;;3.10;;
61527;SDS011;47395;42.032;-8.634;2022-09-20T11:47:51;7.53;;;3.70;;
61527;SDS011;47395;42.032;-8.634;2022-09-20T11:50:16;4.00;;;3.08;;
61527;SDS011;47395;42.032;-8.634;2022-09-20T11:52:55;3.25;;;2.95;;
61527;SDS011;47395;42.032;-8.634;2022-09-20T11:55:23;3.05;;;2.83;;
61527;SDS011;47395;42.032;-8.634;2022-09-20T11:57:25;5.70;;;2.95;;
61527;SDS011;47395;42.032;-8.634;2022-09-20T11:59:33;3.08;;;2.85;;
61527;SDS011;47395;42.032;-8.634;2022-09-20T12:01:40;4.57;;;3.05;;
61527;SDS011;47395;42.032;-8.634;2022-09-20T12:03:43;6.85;;;2.90;;
61527;SDS011;47395;42.032;-8.634;2022-09-20T12:06:00;3.70;;;2.90;;
61527;SDS011;47395;42.032;-8.634;2022-09-20T12:10:35;5.85;;;2.90;;
61527;SDS011;47395;42.032;-8.634;2022-09-20T12:12:39;3.47;;;2.67;;
61527;SDS011;47395;42.032;-8.634;2022-09-20T12:14:52;5.20;;;3.08;;
61527;SDS011;47395;42.032;-8.634;2022-09-20T12:16:55;2.78;;;2.58;;
61527;SDS011;47395;42.032;-8.634;2022-09-20T12:21:20;6.93;;;2.92;;
61527;SDS011;47395;42.032;-8.634;2022-09-20T12:28:42;3.33;;;2.72;;
61527;SDS011;47395;42.032;-8.634;2022-09-20T12:31:04;5.00;;;2.53;;
61527;SDS011;47395;42.032;-8.634;2022-09-20T12:33:18;3.95;;;2.35;;
61527;SDS011;47395;42.032;-8.634;2022-09-20T12:38:14;2.78;;;2.58;;
61527;SDS011;47395;42.032;-8.634;2022-09-20T12:41:05;2.60;;;2.40;;
61527;SDS011;47395;42.032;-8.634;2022-09-20T12:43:15;4.90;;;2.50;;
61527;SDS011;47395;42.032;-8.634;2022-09-20T12:45:22;4.57;;;2.22;;
61527;SDS011;47395;42.032;-8.634;2022-09-20T12:52:19;6.07;;;3.92;;
61527;SDS011;47395;42.032;-8.634;2022-09-20T12:54:52;11.57;;;2.13;;
61527;SDS011;47395;42.032;-8.634;2022-09-20T12:56:53;2.47;;;2.08;;
61527;SDS011;47395;42.032;-8.634;2022-09-20T12:58:54;3.55;;;2.40;;
61527;SDS011;47395;42.032;-8.634;2022-09-20T13:05:36;4.13;;;2.13;;
61527;SDS011;47395;42.032;-8.634;2022-09-20T13:07:45;5.45;;;2.08;;
61527;SDS011;47395;42.032;-8.634;2022-09-20T13:09:51;2.70;;;1.85;;
61527;SDS011;47395;42.032;-8.634;2022-09-20T13:11:53;2.50;;;2.28;;
61527;SDS011;47395;42.032;-8.634;2022-09-20T13:16:16;3.10;;;2.60;;
61527;SDS011;47395;42.032;-8.634;2022-09-20T13:18:23;2.08;;;1.92;;
61527;SDS011;47395;42.032;-8.634;2022-09-20T13:20:27;6.93;;;2.78;;
61527;SDS011;47395;42.032;-8.634;2022-09-20T13:22:34;3.92;;;2.20;;
61527;SDS011;47395;42.032;-8.634;2022-09-20T13:24:41;2.25;;;2.15;;
61527;SDS011;47395;42.032;-8.634;2022-09-20T13:26:46;2.13;;;2.03;;
61527;SDS011;47395;42.032;-8.634;2022-09-20T13:28:49;2.42;;;2.03;;
61527;SDS011;47395;42.032;-8.634;2022-09-20T13:33:39;2.00;;;1.90;;
61527;SDS011;47395;42.032;-8.634;2022-09-20T13:35:40;2.13;;;2.03;;
61527;SDS011;47395;42.032;-8.634;2022-09-20T13:37:49;2.65;;;2.20;;
61527;SDS011;47395;42.032;-8.634;2022-09-20T13:39:53;2.75;;;2.17;;
61527;SDS011;47395;42.032;-8.634;2022-09-20T13:41:57;4.80;;;2.33;;
61527;SDS011;47395;42.032;-8.634;2022-09-20T13:44:01;3.22;;;2.00;;
61527;SDS011;47395;42.032;-8.634;2022-09-20T13:46:12;3.42;;;2.30;;
61527;SDS011;47395;42.032;-8.634;2022-09-20T13:48:17;3.03;;;2.78;;
61527;SDS011;47395;42.032;-8.634;2022-09-20T13:50:34;2.83;;;2.20;;
61527;SDS011;47395;42.032;-8.634;2022-09-20T13:52:42;5.00;;;2.20;;
61527;SDS011;47395;42.032;-8.634;2022-09-20T13:54:48;2.85;;;2.33;;
61527;SDS011;47395;42.032;-8.634;2022-09-20T13:56:48;8.27;;;2.33;;
61527;SDS011;47395;42.032;-8.634;2022-09-20T13:58:50;5.03;;;2.35;;
61527;SDS011;47395;42.032;-8.634;2022-09-20T14:00:56;3.78;;;2.00;;
61527;SDS011;47395;42.032;-8.634;2022-09-20T14:03:02;5.35;;;2.13;;
61527;SDS011;47395;42.032;-8.634;2022-09-20T14:05:04;2.13;;;1.85;;
61527;SDS011;47395;42.032;-8.634;2022-09-20T14:07:06;2.35;;;2.13;;
61527;SDS011;47395;42.032;-8.634;2022-09-20T14:11:20;3.65;;;2.65;;
61527;SDS011;47395;42.032;-8.634;2022-09-20T14:13:35;3.00;;;2.75;;
61527;SDS011;47395;42.032;-8.634;2022-09-20T14:15:42;5.78;;;3.00;;
61527;SDS011;47395;42.032;-8.634;2022-09-20T14:17:45;5.38;;;2.92;;
61527;SDS011;47395;42.032;-8.634;2022-09-20T14:19:48;4.82;;;2.80;;
61527;SDS011;47395;42.032;-8.634;2022-09-20T14:21:52;3.55;;;2.55;;
61527;SDS011;47395;42.032;-8.634;2022-09-20T14:23:55;4.47;;;2.60;;
61527;SDS011;47395;42.032;-8.634;2022-09-20T14:28:19;3.55;;;2.47;;
61527;SDS011;47395;42.032;-8.634;2022-09-20T14:30:27;3.00;;;2.70;;
61527;SDS011;47395;42.032;-8.634;2022-09-20T14:32:38;9.25;;;2.90;;
61527;SDS011;47395;42.032;-8.634;2022-09-20T14:34:57;5.03;;;3.30;;
61527;SDS011;47395;42.032;-8.634;2022-09-20T14:37:26;7.10;;;4.00;;
61527;SDS011;47395;42.032;-8.634;2022-09-20T14:39:49;8.43;;;4.22;;
61527;SDS011;47395;42.032;-8.634;2022-09-20T14:41:59;7.15;;;3.95;;
61527;SDS011;47395;42.032;-8.634;2022-09-20T14:44:00;6.40;;;4.05;;
61527;SDS011;47395;42.032;-8.634;2022-09-20T14:46:04;8.30;;;4.15;;
61527;SDS011;47395;42.032;-8.634;2022-09-20T14:48:37;6.80;;;3.75;;
61527;SDS011;47395;42.032;-8.634;2022-09-20T14:50:41;11.88;;;4.05;;
61527;SDS011;47395;42.032;-8.634;2022-09-20T14:52:44;4.57;;;3.90;;
61527;SDS011;47395;42.032;-8.634;2022-09-20T14:54:55;5.80;;;4.03;;
61527;SDS011;47395;42.032;-8.634;2022-09-20T14:57:01;6.35;;;4.13;;
61527;SDS011;47395;42.032;-8.634;2022-09-20T14:59:23;6.00;;;3.67;;
61527;SDS011;47395;42.032;-8.634;2022-09-20T15:01:27;5.35;;;3.78;;
61527;SDS011;47395;42.032;-8.634;2022-09-20T15:03:29;4.30;;;3.55;;
61527;SDS011;47395;42.032;-8.634;2022-09-20T15:05:38;5.10;;;3.47;;
61527;SDS011;47395;42.032;-8.634;2022-09-20T15:07:38;3.45;;;3.20;;
61527;SDS011;47395;42.032;-8.634;2022-09-20T15:09:39;3.53;;;3.08;;
61527;SDS011;47395;42.032;-8.634;2022-09-20T15:11:40;4.45;;;3.03;;
61527;SDS011;47395;42.032;-8.634;2022-09-20T15:13:44;6.63;;;3.75;;
61527;SDS011;47395;42.032;-8.634;2022-09-20T15:15:49;4.35;;;3.10;;
61527;SDS011;47395;42.032;-8.634;2022-09-20T15:17:52;3.63;;;3.38;;
61527;SDS011;47395;42.032;-8.634;2022-09-20T15:19:53;16.38;;;3.10;;
61527;SDS011;47395;42.032;-8.634;2022-09-20T15:21:54;3.78;;;3.45;;
61527;SDS011;47395;42.032;-8.634;2022-09-20T15:23:55;4.05;;;3.15;;
61527;SDS011;47395;42.032;-8.634;2022-09-20T15:25:56;3.22;;;2.92;;
61527;SDS011;47395;42.032;-8.634;2022-09-20T15:27:57;4.38;;;3.00;;
61527;SDS011;47395;42.032;-8.634;2022-09-20T15:29:58;4.55;;;3.25;;
61527;SDS011;47395;42.032;-8.634;2022-09-20T15:31:59;2.92;;;2.83;;
61527;SDS011;47395;42.032;-8.634;2022-09-20T15:33:59;5.07;;;3.03;;
61527;SDS011;47395;42.032;-8.634;2022-09-20T15:36:00;4.18;;;2.95;;
61527;SDS011;47395;42.032;-8.634;2022-09-20T15:38:02;3.42;;;2.90;;
61527;SDS011;47395;42.032;-8.634;2022-09-20T15:40:03;5.18;;;2.97;;
61527;SDS011;47395;42.032;-8.634;2022-09-20T15:42:05;3.67;;;2.90;;
61527;SDS011;47395;42.032;-8.634;2022-09-20T15:44:06;3.10;;;2.90;;
61527;SDS011;47395;42.032;-8.634;2022-09-20T15:46:25;3.88;;;3.28;;
61527;SDS011;47395;42.032;-8.634;2022-09-20T15:48:27;5.22;;;3.15;;
61527;SDS011;47395;42.032;-8.634;2022-09-20T15:50:29;6.30;;;3.03;;
61527;SDS011;47395;42.032;-8.634;2022-09-20T15:52:37;4.55;;;3.60;;
61527;SDS011;47395;42.032;-8.634;2022-09-20T15:54:41;4.03;;;3.60;;
61527;SDS011;47395;42.032;-8.634;2022-09-20T15:56:45;8.82;;;3.55;;
61527;SDS011;47395;42.032;-8.634;2022-09-20T15:58:47;7.97;;;3.20;;